createdAt,value
2019-01-18T00:01:00.754Z,91.40
2019-01-18T00:05:07.952Z,91.70
2019-01-18T00:09:15.291Z,91.30
2019-01-18T00:13:21.667Z,91.10
2019-01-18T00:17:28.122Z,91.10
2019-01-18T00:21:34.417Z,91.10
2019-01-18T00:25:42.640Z,90.90
2019-01-18T00:29:48.913Z,90.90
2019-01-18T00:33:55.666Z,90.90
2019-01-18T00:38:01.943Z,91.10
2019-01-18T00:42:08.825Z,91.10
2019-01-18T00:46:15.022Z,90.90
2019-01-18T00:50:22.130Z,90.80
2019-01-18T00:54:28.378Z,91.30
2019-01-18T00:58:35.708Z,91.10
2019-01-18T01:02:42.035Z,91.20
2019-01-18T01:06:48.486Z,91.10
2019-01-18T01:10:54.725Z,90.80
2019-01-18T01:15:01.635Z,90.80
2019-01-18T01:19:08.055Z,90.70
2019-01-18T01:23:14.470Z,90.50
2019-01-18T01:27:23.034Z,90.30
2019-01-18T01:31:33.326Z,90.60
2019-01-18T01:35:39.615Z,90.10
2019-01-18T01:39:46.090Z,90.00
2019-01-18T01:43:52.325Z,90.00
2019-01-18T01:48:01.778Z,89.00
2019-01-18T01:52:07.964Z,89.20
2019-01-18T01:56:14.565Z,88.20
2019-01-18T02:00:23.548Z,87.80
2019-01-18T02:04:32.894Z,87.60
2019-01-18T02:08:39.146Z,88.40
2019-01-18T02:12:45.663Z,85.50
2019-01-18T02:16:51.924Z,85.80
2019-01-18T02:20:59.414Z,84.70
2019-01-18T02:25:06.173Z,84.30
2019-01-18T02:29:14.194Z,84.10
2019-01-18T02:33:20.422Z,83.50
2019-01-18T02:37:27.362Z,83.50
2019-01-18T02:41:36.402Z,83.80
2019-01-18T02:45:42.917Z,82.60
2019-01-18T02:49:49.197Z,81.50
2019-01-18T02:53:57.002Z,81.80
2019-01-18T02:58:03.350Z,82.30
2019-01-18T03:02:10.768Z,82.20
2019-01-18T03:06:17.117Z,82.40
2019-01-18T03:10:29.676Z,82.60
2019-01-18T03:14:35.969Z,83.50
2019-01-18T03:18:42.567Z,84.10
2019-01-18T03:22:48.938Z,86.20
2019-01-18T03:26:55.983Z,87.50
2019-01-18T03:31:04.450Z,89.60
2019-01-18T03:35:12.509Z,90.40
2019-01-18T03:39:19.082Z,91.00
2019-01-18T03:43:27.122Z,90.80
2019-01-18T03:47:33.403Z,91.00
2019-01-18T03:51:40.020Z,91.20
2019-01-18T03:55:46.359Z,91.00
2019-01-18T03:59:53.751Z,91.40
2019-01-18T04:04:00.020Z,91.20
2019-01-18T04:08:06.539Z,91.20
2019-01-18T04:12:12.826Z,91.30
2019-01-18T04:16:23.306Z,91.60
2019-01-18T04:20:29.656Z,91.60
2019-01-18T04:24:37.019Z,91.60
2019-01-18T04:28:43.369Z,91.50
2019-01-18T04:32:50.599Z,91.50
2019-01-18T04:36:56.861Z,91.10
2019-01-18T04:41:03.368Z,90.80
2019-01-18T04:45:10.651Z,90.80
2019-01-18T04:49:17.996Z,90.80
2019-01-18T04:53:24.158Z,90.30
2019-01-18T04:57:31.592Z,90.30
2019-01-18T05:01:37.912Z,90.10
2019-01-18T05:05:44.807Z,89.90
2019-01-18T05:09:51.096Z,89.40
2019-01-18T05:13:57.956Z,89.20
2019-01-18T05:18:04.318Z,90.40
2019-01-18T05:22:10.996Z,91.80
2019-01-18T05:26:17.243Z,92.30
2019-01-18T05:30:30.757Z,92.70
2019-01-18T05:34:37.905Z,92.90
2019-01-18T05:38:47.986Z,93.00
2019-01-18T05:42:54.241Z,92.50
2019-01-18T05:47:00.679Z,92.60
2019-01-18T05:51:06.940Z,92.00
2019-01-18T05:55:14.586Z,91.40
2019-01-18T05:59:20.889Z,90.90
2019-01-18T06:03:27.496Z,90.30
2019-01-18T06:07:33.750Z,89.20
2019-01-18T06:11:43.171Z,88.10
2019-01-18T06:15:51.153Z,87.90
2019-01-18T06:19:58.647Z,87.20
2019-01-18T06:24:04.943Z,88.80
2019-01-18T06:28:12.152Z,89.20
2019-01-18T06:32:18.403Z,89.50
2019-01-18T06:36:26.255Z,90.30
2019-01-18T06:40:32.504Z,90.70
2019-01-18T06:44:39.592Z,90.60
2019-01-18T06:48:46.456Z,90.20
2019-01-18T06:52:52.958Z,91.10
2019-01-18T06:56:59.339Z,90.00
2019-01-18T07:01:08.591Z,89.70
2019-01-18T07:05:14.985Z,89.80
2019-01-18T07:09:21.568Z,89.40
2019-01-18T07:13:27.838Z,89.40
2019-01-18T07:17:35.987Z,88.60
2019-01-18T07:21:42.201Z,91.40
2019-01-18T07:25:48.809Z,88.10
2019-01-18T07:29:56.790Z,86.30
2019-01-18T07:34:04.628Z,86.80
2019-01-18T07:38:11.431Z,85.80
2019-01-18T07:42:18.969Z,88.00
2019-01-18T07:46:25.320Z,85.10
2019-01-18T07:50:32.388Z,86.50
2019-01-18T07:54:38.662Z,86.00
2019-01-18T07:58:45.255Z,86.40
2019-01-18T08:02:51.614Z,88.20
2019-01-18T08:07:00.631Z,90.50
2019-01-18T08:11:07.043Z,91.60
2019-01-18T08:15:16.508Z,92.20
2019-01-18T08:19:22.888Z,92.80
2019-01-18T08:23:30.553Z,93.30
2019-01-18T08:27:36.847Z,93.60
2019-01-18T08:31:43.370Z,93.10
2019-01-18T08:35:49.628Z,93.10
2019-01-18T08:39:59.974Z,93.40
2019-01-18T08:44:06.215Z,93.40
2019-01-18T08:48:13.709Z,93.50
2019-01-18T08:52:20.005Z,93.20
2019-01-18T08:57:04.840Z,93.70
2019-01-18T09:01:11.174Z,94.40
2019-01-18T09:05:19.904Z,95.70
2019-01-18T09:09:26.184Z,95.90
2019-01-18T09:13:33.754Z,97.40
2019-01-18T09:17:40.133Z,96.00
2019-01-18T09:21:46.583Z,95.90
2019-01-18T09:25:52.854Z,95.90
2019-01-18T09:30:01.057Z,95.20
2019-01-18T09:34:08.375Z,95.70
2019-01-18T09:38:17.970Z,94.90
2019-01-18T09:42:25.315Z,94.60
2019-01-18T09:46:34.114Z,95.10
2019-01-18T09:50:40.503Z,95.30
2019-01-18T09:54:47.015Z,95.30
2019-01-18T09:58:53.303Z,95.10
2019-01-18T10:03:00.975Z,94.80
2019-01-18T10:07:07.324Z,94.80
2019-01-18T10:11:13.888Z,94.10
2019-01-18T10:15:25.769Z,93.50
2019-01-18T10:19:33.245Z,93.60
2019-01-18T10:23:39.544Z,92.90
2019-01-18T10:27:46.157Z,93.40
2019-01-18T10:31:56.011Z,94.00
2019-01-18T10:36:00.975Z,94.00
2019-01-18T10:40:07.896Z,93.70
2019-01-18T10:44:15.360Z,93.10
2019-01-18T10:48:21.629Z,94.00
2019-01-18T10:52:29.836Z,93.70
2019-01-18T10:56:36.101Z,93.50
2019-01-18T11:00:42.674Z,93.20
2019-01-18T11:04:48.967Z,92.80
2019-01-18T11:08:56.766Z,92.60
2019-01-18T11:13:03.112Z,93.20
2019-01-18T11:17:10.660Z,93.40
2019-01-18T11:21:19.515Z,93.30
2019-01-18T11:25:31.794Z,93.10
2019-01-18T11:29:34.424Z,93.50
2019-01-18T11:33:40.910Z,93.70
2019-01-18T11:37:47.256Z,92.80
2019-01-18T11:41:54.300Z,92.10
2019-01-18T11:46:02.330Z,90.80
2019-01-18T11:50:12.867Z,90.60
2019-01-18T11:54:19.243Z,90.70
2019-01-18T11:58:27.160Z,90.30
2019-01-18T12:02:33.393Z,89.90
2019-01-18T12:06:39.835Z,89.70
2019-01-18T12:10:46.267Z,89.80
2019-01-18T12:14:53.549Z,89.80
2019-01-18T12:18:59.796Z,89.90
2019-01-18T12:23:09.174Z,88.60
2019-01-18T12:27:18.404Z,86.90
2019-01-18T12:31:26.571Z,85.70
2019-01-18T12:35:32.912Z,85.70
2019-01-18T12:39:39.698Z,84.90
2019-01-18T12:43:45.972Z,84.10
2019-01-18T12:47:54.409Z,83.70
2019-01-18T12:52:00.686Z,82.00
2019-01-18T12:56:09.556Z,82.80
2019-01-18T13:00:20.160Z,83.00
2019-01-18T13:04:29.312Z,82.00
2019-01-18T13:08:35.986Z,82.50
2019-01-18T13:12:42.599Z,82.60
2019-01-18T13:16:49.204Z,77.90
2019-01-18T13:20:56.827Z,77.70
2019-01-18T13:25:03.094Z,74.80
2019-01-18T13:29:09.615Z,75.00
2019-01-18T13:33:15.883Z,74.70
2019-01-18T13:37:24.486Z,75.90
2019-01-18T13:41:30.737Z,77.30
2019-01-18T13:45:37.256Z,78.00
2019-01-18T13:49:44.474Z,78.60
2019-01-18T13:53:53.485Z,79.30
2019-01-18T13:57:59.679Z,76.80
2019-01-18T14:02:06.429Z,78.00
2019-01-18T14:06:12.704Z,77.20
2019-01-18T14:10:25.671Z,74.60
2019-01-18T14:14:32.007Z,73.20
2019-01-18T14:18:38.633Z,74.70
2019-01-18T14:22:45.101Z,75.50
2019-01-18T14:26:52.498Z,76.20
2019-01-18T14:30:58.755Z,76.80
2019-01-18T14:35:06.054Z,76.30
2019-01-18T14:39:12.359Z,75.60
2019-01-18T14:43:20.266Z,76.20
2019-01-18T14:47:28.134Z,77.20
2019-01-18T14:51:36.826Z,77.00
2019-01-18T14:55:43.104Z,76.00
2019-01-18T14:59:50.482Z,76.70
2019-01-18T15:03:56.745Z,77.50
2019-01-18T15:08:03.280Z,76.80
2019-01-18T15:12:10.732Z,77.20
2019-01-18T15:16:18.100Z,76.80
2019-01-18T15:20:28.782Z,76.60
2019-01-18T15:24:36.332Z,76.50
2019-01-18T15:28:42.564Z,76.70
2019-01-18T15:32:50.616Z,76.50
2019-01-18T15:36:57.115Z,76.10
2019-01-18T15:41:03.656Z,75.30
2019-01-18T15:45:10.464Z,75.90
2019-01-18T15:49:17.619Z,75.00
2019-01-18T15:53:24.600Z,75.20
2019-01-18T15:57:31.265Z,75.00
2019-01-18T16:01:37.603Z,76.20
2019-01-18T16:05:44.758Z,75.80
2019-01-18T16:09:51.026Z,76.70
2019-01-18T16:13:57.605Z,76.60
2019-01-18T16:18:06.694Z,77.00
2019-01-18T16:22:14.765Z,75.50
2019-01-18T16:26:21.224Z,75.50
2019-01-18T16:30:27.770Z,74.90
2019-01-18T16:34:33.997Z,76.60
2019-01-18T16:38:40.831Z,76.20
2019-01-18T16:42:49.176Z,75.70
2019-01-18T16:46:55.904Z,76.60
2019-01-18T16:51:02.191Z,77.70
2019-01-18T16:55:11.709Z,76.90
2019-01-18T16:59:18.034Z,77.10
2019-01-18T17:03:30.150Z,76.80
2019-01-18T17:07:32.434Z,76.80
2019-01-18T17:11:40.288Z,76.50
2019-01-18T17:15:46.733Z,77.40
2019-01-18T17:19:53.194Z,77.70
2019-01-18T17:23:59.461Z,78.10
2019-01-18T17:28:07.505Z,78.20
2019-01-18T17:32:13.850Z,78.80
2019-01-18T17:36:37.037Z,79.20
2019-01-18T17:41:16.164Z,79.80
2019-01-18T17:45:52.073Z,81.10
2019-01-18T17:50:29.125Z,82.20
2019-01-18T17:54:51.055Z,85.00
2019-01-18T17:59:18.941Z,85.60
2019-01-18T18:03:49.273Z,87.00
2019-01-18T18:08:21.995Z,88.30
2019-01-18T18:12:47.422Z,88.40
2019-01-18T18:17:27.398Z,89.20
2019-01-18T18:22:23.857Z,89.30
2019-01-18T18:27:06.964Z,90.00
2019-01-18T18:31:59.739Z,90.40
2019-01-18T18:36:47.564Z,90.90
2019-01-18T18:41:32.548Z,90.80
2019-01-18T18:46:03.947Z,90.90
2019-01-18T18:50:54.904Z,90.70
2019-01-18T18:55:22.949Z,90.50
2019-01-18T18:59:59.512Z,90.50
2019-01-18T19:04:36.001Z,90.60
2019-01-18T19:09:16.156Z,90.10
2019-01-18T19:14:01.902Z,89.50
2019-01-18T19:18:59.810Z,89.10
2019-01-18T19:23:48.107Z,89.80
2019-01-18T19:28:19.039Z,89.80
2019-01-18T19:32:54.486Z,89.60
2019-01-18T19:37:38.843Z,90.20
2019-01-18T19:42:16.889Z,89.70
2019-01-18T19:46:49.420Z,89.20
2019-01-18T19:51:33.828Z,89.60
2019-01-18T19:56:19.776Z,90.80
2019-01-18T20:01:00.111Z,90.10
2019-01-18T20:05:57.483Z,90.00
2019-01-18T20:10:36.090Z,90.20
2019-01-18T20:15:06.137Z,90.30
2019-01-18T20:19:47.994Z,90.40
2019-01-18T20:24:41.369Z,90.30
2019-01-18T20:29:27.303Z,90.60
2019-01-18T20:34:09.053Z,90.40
2019-01-18T20:38:48.160Z,90.40
2019-01-18T20:43:17.295Z,92.20
2019-01-18T20:48:05.852Z,90.70
2019-01-18T20:52:59.043Z,90.70
2019-01-18T20:57:40.769Z,91.00
2019-01-18T21:02:32.236Z,91.00
2019-01-18T21:07:20.523Z,90.60
2019-01-18T21:12:05.079Z,90.80
2019-01-18T21:17:00.506Z,90.70
2019-01-18T21:21:21.939Z,90.80
2019-01-18T21:25:52.441Z,90.50
2019-01-18T21:30:27.546Z,90.90
2019-01-18T21:35:01.104Z,90.80
2019-01-18T21:39:43.283Z,90.70
2019-01-18T21:44:33.716Z,90.90
2019-01-18T21:49:08.950Z,91.00
2019-01-18T21:53:33.637Z,91.30
2019-01-18T21:58:18.332Z,91.60
2019-01-18T22:03:05.754Z,91.60
2019-01-18T22:07:51.387Z,92.00
2019-01-18T22:12:39.551Z,91.90
2019-01-18T22:17:10.737Z,91.80
2019-01-18T22:22:15.931Z,91.90
2019-01-18T22:27:01.296Z,92.20
2019-01-18T22:31:34.865Z,92.40
2019-01-18T22:36:04.803Z,92.70
2019-01-18T22:41:01.355Z,92.70
2019-01-18T22:45:35.576Z,92.80
2019-01-18T22:50:07.807Z,92.70
2019-01-18T22:54:53.011Z,92.50
2019-01-18T22:59:40.584Z,92.30
2019-01-18T23:04:22.666Z,92.30
2019-01-18T23:09:20.928Z,92.40
2019-01-18T23:14:14.277Z,92.60
2019-01-18T23:18:32.726Z,92.60
2019-01-18T23:23:29.001Z,92.80
2019-01-18T23:28:17.857Z,93.00
2019-01-18T23:33:10.501Z,92.20
2019-01-18T23:37:22.563Z,92.70
2019-01-18T23:41:53.185Z,92.50
2019-01-18T23:46:39.528Z,92.50
2019-01-18T23:51:24.045Z,92.30
2019-01-18T23:56:10.716Z,92.20
